Terminal Aerodrome Forecast
Issued by NWS Melbourne, FL

Home | Current Version | Previous Version | Text Only | Print | Product List | Glossary On
Versions: 1 2 3 4 5 6 7 8 9 10 11 12 13 14 15 16 17
311
FTUS42 KMLB 140536
TAFDAB
TAF
KDAB 140536Z 1406/1506 01007KT P6SM SKC
     FM141500 04008KT P6SM FEW030
     FM141700 08010KT P6SM BKN035
     FM150200 10005KT P6SM SCT040=

USA.gov is the U.S. government's official web portal to all federal, state and local government web resources and services.